Time;durP1;ratioP1;P1;durP2;ratioP2;P2;SDS_P1;SDS_P2;PMS_P1;PMS_P2;Temp;Humidity;BMP_temperature;BMP_pressure;BME280_temperature;BME280_humidity;BME280_pressure;Samples;Min_cycle;Max_cycle;Signal;HPM_P1;HPM_P2
2022/12/13 00:01:55;;;;;;;36.33;23.60;;;;;;;;;;6339295;22;20152;-73
2022/12/13 00:04:21;;;;;;;33.13;22.60;;;;;;;;;;6338773;22;20329;-73
2022/12/13 00:06:47;;;;;;;32.80;22.70;;;;;;;;;;6339386;22;20539;-73
2022/12/13 00:09:14;;;;;;;36.83;23.43;;;;;;;;;;6365723;22;20415;-73
2022/12/13 00:11:39;;;;;;;35.67;24.50;;;;;;;;;;6365614;22;20191;-74
2022/12/13 00:14:04;;;;;;;37.90;24.10;;;;;;;;;;6366611;22;20463;-73
2022/12/13 00:16:29;;;;;;;47.57;24.80;;;;;;;;;;6338339;22;20683;-73
2022/12/13 00:18:56;;;;;;;34.73;22.30;;;;;;;;;;6336678;22;20172;-73
2022/12/13 00:21:22;;;;;;;36.00;23.03;;;;;;;;;;6338869;22;20191;-73
2022/12/13 00:23:50;;;;;;;34.10;20.93;;;;;;;;;;6365762;22;20363;-73
2022/12/13 00:26:17;;;;;;;32.53;21.17;;;;;;;;;;6340284;22;20371;-73
2022/12/13 00:28:43;;;;;;;34.73;22.10;;;;;;;;;;6341122;22;20398;-74
2022/12/13 00:31:08;;;;;;;30.77;21.43;;;;;;;;;;6341687;22;20868;-73
2022/12/13 00:33:36;;;;;;;36.17;22.67;;;;;;;;;;6341717;22;20153;-73
2022/12/13 00:36:02;;;;;;;34.30;22.87;;;;;;;;;;6368843;22;20136;-73
2022/12/13 00:38:27;;;;;;;37.10;22.23;;;;;;;;;;6341938;22;20418;-73
2022/12/13 00:40:53;;;;;;;36.00;23.97;;;;;;;;;;6369409;22;20372;-73
2022/12/13 00:43:18;;;;;;;37.03;23.73;;;;;;;;;;6342551;22;20223;-73
2022/12/13 00:45:43;;;;;;;38.13;24.67;;;;;;;;;;6342574;22;20149;-73
2022/12/13 00:48:09;;;;;;;34.93;22.60;;;;;;;;;;6368626;22;20156;-74
2022/12/13 00:50:34;;;;;;;36.33;22.73;;;;;;;;;;6369278;22;20148;-73
2022/12/13 00:53:00;;;;;;;36.33;22.60;;;;;;;;;;6341982;22;20187;-73
2022/12/13 00:55:25;;;;;;;34.17;21.30;;;;;;;;;;6342009;22;20152;-73
2022/12/13 00:57:51;;;;;;;33.23;21.60;;;;;;;;;;6341612;22;20487;-73
2022/12/13 01:00:16;;;;;;;36.77;21.60;;;;;;;;;;6367745;22;20151;-73
2022/12/13 01:02:42;;;;;;;38.40;21.20;;;;;;;;;;6370700;22;20587;-74
2022/12/13 01:05:08;;;;;;;30.50;20.13;;;;;;;;;;6341299;22;20187;-73
2022/12/13 01:07:33;;;;;;;34.13;22.10;;;;;;;;;;6369830;22;20156;-73
2022/12/13 01:10:01;;;;;;;32.70;21.87;;;;;;;;;;6341144;22;20152;-73
2022/12/13 01:12:26;;;;;;;33.90;22.07;;;;;;;;;;6366475;22;20179;-73
2022/12/13 01:14:51;;;;;;;35.40;21.07;;;;;;;;;;6368881;22;20363;-74
2022/12/13 01:17:16;;;;;;;33.10;20.60;;;;;;;;;;6367611;22;20156;-73
2022/12/13 01:19:42;;;;;;;31.00;19.83;;;;;;;;;;6368564;22;20163;-73
2022/12/13 01:22:07;;;;;;;37.73;23.10;;;;;;;;;;6367785;22;20152;-73
2022/12/13 01:24:33;;;;;;;32.63;21.50;;;;;;;;;;6340219;22;20152;-73
2022/12/13 01:26:58;;;;;;;33.63;23.17;;;;;;;;;;6340450;22;20148;-73
2022/12/13 01:29:24;;;;;;;36.73;21.80;;;;;;;;;;6339766;22;20537;-73
2022/12/13 01:31:50;;;;;;;35.70;20.60;;;;;;;;;;6369413;22;20521;-73
2022/12/13 01:34:17;;;;;;;33.93;21.43;;;;;;;;;;6370106;22;20375;-73
2022/12/13 01:36:44;;;;;;;33.00;21.37;;;;;;;;;;6341795;22;20156;-73
2022/12/13 01:39:10;;;;;;;34.60;23.23;;;;;;;;;;6369498;22;21100;-73
2022/12/13 01:41:36;;;;;;;35.37;22.70;;;;;;;;;;6369072;22;20371;-73
2022/12/13 01:44:02;;;;;;;37.77;22.70;;;;;;;;;;6342362;22;20374;-73
2022/12/13 01:46:32;;;;;;;36.73;21.33;;;;;;;;;;6341433;22;20159;-73
2022/12/13 01:49:12;;;;;;;35.90;22.70;;;;;;;;;;6341355;22;20386;-73
2022/12/13 01:51:42;;;;;;;31.53;21.73;;;;;;;;;;6371589;22;20525;-73
2022/12/13 01:54:10;;;;;;;33.40;21.33;;;;;;;;;;6370514;22;20350;-73
2022/12/13 01:56:41;;;;;;;33.33;21.50;;;;;;;;;;6372020;22;20362;-73
2022/12/13 01:59:08;;;;;;;33.20;20.33;;;;;;;;;;6369489;22;20414;-73
2022/12/13 02:01:34;;;;;;;31.00;19.90;;;;;;;;;;6343025;22;20454;-73
2022/12/13 02:03:59;;;;;;;41.03;20.70;;;;;;;;;;6370726;22;20761;-73
2022/12/13 02:06:30;;;;;;;31.20;20.27;;;;;;;;;;6340625;22;20701;-73
2022/12/13 02:08:56;;;;;;;31.33;21.37;;;;;;;;;;6369928;22;20161;-73
2022/12/13 02:11:21;;;;;;;34.23;20.37;;;;;;;;;;6369601;22;20413;-73
2022/12/13 02:13:46;;;;;;;32.20;20.80;;;;;;;;;;6342788;22;20163;-73
2022/12/13 02:16:30;;;;;;;35.87;22.27;;;;;;;;;;6342615;22;20283;-73
2022/12/13 02:19:14;;;;;;;32.63;21.30;;;;;;;;;;6341510;22;20168;-73
2022/12/13 02:21:49;;;;;;;31.37;20.00;;;;;;;;;;6342509;22;20400;-73
2022/12/13 02:24:29;;;;;;;32.93;20.57;;;;;;;;;;6368565;22;20688;-73
2022/12/13 02:27:00;;;;;;;36.27;22.13;;;;;;;;;;6369757;22;20361;-73
2022/12/13 02:29:31;;;;;;;36.20;21.47;;;;;;;;;;6369930;22;20367;-73
2022/12/13 02:31:56;;;;;;;36.00;20.80;;;;;;;;;;6369703;22;20407;-73
2022/12/13 02:34:24;;;;;;;32.33;21.47;;;;;;;;;;6343183;22;20966;-73
2022/12/13 02:39:33;;;;;;;34.70;21.60;;;;;;;;;;5096055;27;20561;-74
2022/12/13 02:42:23;;;;;;;32.43;21.10;;;;;;;;;;5084229;28;20435;-74
2022/12/13 02:44:51;;;;;;;30.45;22.50;;;;;;;;;;5082289;28;20422;-74
2022/12/13 02:47:19;;;;;;;34.80;22.23;;;;;;;;;;5077567;28;20266;-74
2022/12/13 02:49:46;;;;;;;33.90;21.27;;;;;;;;;;5093752;28;20444;-74
2022/12/13 02:52:13;;;;;;;33.00;22.60;;;;;;;;;;5077289;28;20459;-74
2022/12/13 02:54:40;;;;;;;33.87;21.80;;;;;;;;;;5074750;28;20450;-73
2022/12/13 02:57:25;;;;;;;34.33;20.73;;;;;;;;;;5090913;28;20430;-74
2022/12/13 02:59:50;;;;;;;33.10;21.90;;;;;;;;;;5090588;28;20485;-74
2022/12/13 03:02:18;;;;;;;27.93;18.97;;;;;;;;;;5080295;28;20424;-74
2022/12/13 03:07:50;;;;;;;31.67;21.03;;;;;;;;;;5076337;28;20586;-74
2022/12/13 03:10:20;;;;;;;28.80;19.07;;;;;;;;;;5076840;28;20477;-74
2022/12/13 03:15:54;;;;;;;32.07;19.50;;;;;;;;;;5075960;28;20931;-74
2022/12/13 03:18:21;;;;;;;29.30;19.90;;;;;;;;;;5080719;28;20449;-74
2022/12/13 03:20:52;;;;;;;31.90;20.83;;;;;;;;;;5084146;28;20462;-74
2022/12/13 03:23:18;;;;;;;29.47;19.13;;;;;;;;;;5074544;28;20516;-74
2022/12/13 03:25:44;;;;;;;35.63;19.40;;;;;;;;;;5079245;28;20424;-74
2022/12/13 03:28:11;;;;;;;27.80;19.47;;;;;;;;;;5079021;28;20457;-74
2022/12/13 03:30:36;;;;;;;26.70;18.00;;;;;;;;;;5081840;28;20414;-73
2022/12/13 03:33:01;;;;;;;29.10;18.87;;;;;;;;;;5080150;28;20774;-74
2022/12/13 03:35:27;;;;;;;28.70;19.47;;;;;;;;;;5082213;28;20174;-74
2022/12/13 03:37:53;;;;;;;27.20;18.20;;;;;;;;;;5081441;28;20238;-74
2022/12/13 03:40:19;;;;;;;29.53;20.10;;;;;;;;;;5079548;28;20186;-74
2022/12/13 03:42:44;;;;;;;31.30;21.10;;;;;;;;;;5080277;28;20189;-74
2022/12/13 03:45:09;;;;;;;24.00;17.57;;;;;;;;;;5082839;28;20442;-74
2022/12/13 03:47:34;;;;;;;30.87;20.40;;;;;;;;;;5081637;28;20253;-74
2022/12/13 03:50:00;;;;;;;31.33;20.60;;;;;;;;;;5070657;28;20175;-74
2022/12/13 03:52:25;;;;;;;31.97;21.07;;;;;;;;;;5085323;28;20187;-74
2022/12/13 03:54:50;;;;;;;33.50;21.30;;;;;;;;;;5067834;28;20167;-74
2022/12/13 03:57:15;;;;;;;31.77;21.30;;;;;;;;;;5066867;28;20188;-74
2022/12/13 03:59:41;;;;;;;32.83;21.60;;;;;;;;;;5065235;28;20197;-74
2022/12/13 04:02:06;;;;;;;32.77;21.67;;;;;;;;;;5067725;28;20179;-74
2022/12/13 04:04:31;;;;;;;33.07;21.80;;;;;;;;;;5063786;28;20192;-74
2022/12/13 04:06:59;;;;;;;31.90;19.83;;;;;;;;;;5078657;28;20884;-74
2022/12/13 04:09:24;;;;;;;33.67;21.17;;;;;;;;;;5066016;28;20181;-74
2022/12/13 04:14:33;;;;;;;35.83;21.23;;;;;;;;;;5064100;28;20194;-74
2022/12/13 04:16:59;;;;;;;37.20;23.03;;;;;;;;;;5078804;28;20433;-74
2022/12/13 04:19:24;;;;;;;37.03;22.17;;;;;;;;;;5064240;28;20175;-74
2022/12/13 04:21:53;;;;;;;39.37;23.43;;;;;;;;;;5066239;28;20600;-74
2022/12/13 04:24:18;;;;;;;34.97;23.53;;;;;;;;;;5060140;28;20188;-74
2022/12/13 04:26:44;;;;;;;37.67;24.03;;;;;;;;;;5069803;28;20436;-74
2022/12/13 04:29:09;;;;;;;40.10;22.93;;;;;;;;;;5062749;28;20211;-74
2022/12/13 04:31:34;;;;;;;37.27;22.10;;;;;;;;;;5060702;28;20225;-74
2022/12/13 04:33:59;;;;;;;36.03;22.53;;;;;;;;;;5065273;28;20178;-74
2022/12/13 04:36:25;;;;;;;40.33;22.63;;;;;;;;;;5068569;28;20636;-74
2022/12/13 04:38:50;;;;;;;41.83;25.37;;;;;;;;;;5073838;28;20302;-74
2022/12/13 04:41:16;;;;;;;40.03;24.10;;;;;;;;;;5064241;28;20209;-74
2022/12/13 04:43:42;;;;;;;37.43;23.60;;;;;;;;;;5064471;28;20182;-74
2022/12/13 04:46:07;;;;;;;37.20;22.97;;;;;;;;;;5064609;28;20520;-74
2022/12/13 04:48:33;;;;;;;37.20;22.47;;;;;;;;;;5063621;28;20203;-74
2022/12/13 04:50:59;;;;;;;35.00;22.30;;;;;;;;;;5065927;28;20271;-74
2022/12/13 04:53:24;;;;;;;36.87;23.13;;;;;;;;;;5064817;28;20190;-74
2022/12/13 04:55:49;;;;;;;34.03;22.33;;;;;;;;;;5063395;28;20179;-74
2022/12/13 04:58:17;;;;;;;35.20;21.87;;;;;;;;;;5064987;28;20228;-74
2022/12/13 05:00:43;;;;;;;34.85;26.23;;;;;;;;;;5061355;28;20429;-74
2022/12/13 05:03:08;;;;;;;39.00;24.87;;;;;;;;;;5060951;28;20175;-74
2022/12/13 05:05:33;;;;;;;39.60;22.67;;;;;;;;;;5061406;28;20176;-74
2022/12/13 05:07:58;;;;;;;34.57;22.87;;;;;;;;;;5064073;28;20556;-74
2022/12/13 05:10:24;;;;;;;38.37;22.83;;;;;;;;;;5061696;28;20217;-74
2022/12/13 05:12:51;;;;;;;37.73;22.50;;;;;;;;;;5064060;28;20203;-74
2022/12/13 05:15:17;;;;;;;34.73;21.57;;;;;;;;;;5064746;28;20172;-74
2022/12/13 05:17:45;;;;;;;34.27;22.20;;;;;;;;;;5065415;28;20453;-74
2022/12/13 05:20:10;;;;;;;38.17;22.40;;;;;;;;;;5064806;28;20183;-74
2022/12/13 05:22:36;;;;;;;34.97;22.60;;;;;;;;;;5062646;28;20433;-74
2022/12/13 05:25:01;;;;;;;31.97;21.73;;;;;;;;;;5060535;28;20187;-74
2022/12/13 05:27:27;;;;;;;34.57;21.87;;;;;;;;;;5060478;28;20457;-74
2022/12/13 05:29:53;;;;;;;32.07;21.53;;;;;;;;;;5062601;28;20203;-75
2022/12/13 05:32:19;;;;;;;32.90;22.20;;;;;;;;;;5061696;28;20238;-74
2022/12/13 05:34:44;;;;;;;32.37;21.10;;;;;;;;;;5079353;28;20414;-74
2022/12/13 05:37:10;;;;;;;36.23;22.20;;;;;;;;;;5079187;28;20199;-73
2022/12/13 05:39:35;;;;;;;32.07;21.07;;;;;;;;;;5065078;28;20184;-74
2022/12/13 05:42:00;;;;;;;33.10;20.90;;;;;;;;;;5064258;28;20233;-74
2022/12/13 05:44:26;;;;;;;35.23;22.00;;;;;;;;;;5063707;28;20183;-74
2022/12/13 05:46:51;;;;;;;32.67;21.50;;;;;;;;;;5062686;28;20254;-74
2022/12/13 05:49:16;;;;;;;33.97;22.40;;;;;;;;;;5060665;28;20218;-74
2022/12/13 05:51:42;;;;;;;34.83;22.60;;;;;;;;;;5063746;28;20182;-74
2022/12/13 05:54:07;;;;;;;34.07;21.13;;;;;;;;;;5061995;28;20205;-74
2022/12/13 05:56:32;;;;;;;35.33;21.77;;;;;;;;;;5062290;28;20645;-74
2022/12/13 05:58:59;;;;;;;32.50;22.77;;;;;;;;;;5063120;28;20199;-74
2022/12/13 06:01:24;;;;;;;30.90;21.30;;;;;;;;;;5060743;28;20190;-74
2022/12/13 06:03:50;;;;;;;34.83;20.97;;;;;;;;;;5059280;28;20430;-74
2022/12/13 06:06:17;;;;;;;33.43;21.00;;;;;;;;;;5077600;28;20190;-74
2022/12/13 06:08:42;;;;;;;34.00;22.60;;;;;;;;;;5076985;28;20226;-74
2022/12/13 06:11:08;;;;;;;34.80;22.17;;;;;;;;;;5059939;28;20807;-74
2022/12/13 06:13:33;;;;;;;33.10;23.40;;;;;;;;;;5061401;28;20182;-74
2022/12/13 06:16:03;;;;;;;36.03;22.00;;;;;;;;;;5064211;28;20207;-73
2022/12/13 06:18:33;;;;;;;37.87;23.40;;;;;;;;;;5061268;28;20350;-74
2022/12/13 06:20:59;;;;;;;34.23;21.87;;;;;;;;;;5072410;28;20442;-74
2022/12/13 06:23:29;;;;;;;42.77;23.67;;;;;;;;;;5059729;28;20440;-74
2022/12/13 06:25:55;;;;;;;38.17;23.80;;;;;;;;;;5064780;28;20523;-74
2022/12/13 06:28:20;;;;;;;41.30;24.90;;;;;;;;;;5063780;28;20612;-74
2022/12/13 06:30:45;;;;;;;40.53;22.43;;;;;;;;;;5062462;28;20661;-74
2022/12/13 06:33:11;;;;;;;38.13;24.23;;;;;;;;;;5067240;28;20182;-73
2022/12/13 06:35:36;;;;;;;39.70;23.60;;;;;;;;;;5070480;28;20239;-74
2022/12/13 06:38:01;;;;;;;35.00;23.47;;;;;;;;;;5062461;28;20217;-74
2022/12/13 06:40:27;;;;;;;33.73;23.87;;;;;;;;;;5066193;28;20195;-73
2022/12/13 06:42:52;;;;;;;33.13;23.10;;;;;;;;;;5067675;28;20195;-73
2022/12/13 06:45:18;;;;;;;36.83;24.70;;;;;;;;;;5062877;28;20203;-72
2022/12/13 06:47:43;;;;;;;34.47;23.63;;;;;;;;;;5063916;28;20252;-73
2022/12/13 06:50:08;;;;;;;34.00;23.60;;;;;;;;;;5081054;28;20171;-73
2022/12/13 06:52:34;;;;;;;37.77;25.50;;;;;;;;;;5062078;28;20171;-73
2022/12/13 06:55:02;;;;;;;38.30;25.27;;;;;;;;;;5070417;28;20676;-74
2022/12/13 06:57:27;;;;;;;38.97;27.43;;;;;;;;;;5062509;28;20244;-74
2022/12/13 06:59:52;;;;;;;40.67;25.93;;;;;;;;;;5059013;28;20426;-74
2022/12/13 07:02:18;;;;;;;38.20;25.87;;;;;;;;;;5062895;28;20187;-74
2022/12/13 07:04:43;;;;;;;39.93;26.00;;;;;;;;;;5062972;28;20179;-74
2022/12/13 07:07:08;;;;;;;35.37;24.37;;;;;;;;;;5067175;28;20580;-74
2022/12/13 07:09:33;;;;;;;38.60;25.63;;;;;;;;;;5059437;28;20191;-74
2022/12/13 07:11:59;;;;;;;36.20;25.47;;;;;;;;;;5070540;28;20178;-74
2022/12/13 07:14:24;;;;;;;36.50;25.77;;;;;;;;;;5064012;28;20171;-74
2022/12/13 07:16:50;;;;;;;35.87;25.77;;;;;;;;;;5060311;28;20264;-74
2022/12/13 07:19:15;;;;;;;37.50;25.87;;;;;;;;;;5062197;28;20185;-74
2022/12/13 07:21:40;;;;;;;37.33;26.53;;;;;;;;;;5065409;28;20263;-74
2022/12/13 07:24:06;;;;;;;37.80;26.67;;;;;;;;;;5059677;28;20607;-74
2022/12/13 07:26:31;;;;;;;36.83;27.00;;;;;;;;;;5060760;28;20186;-74
2022/12/13 07:28:57;;;;;;;36.27;25.80;;;;;;;;;;5065644;28;20269;-74
2022/12/13 07:31:23;;;;;;;35.70;26.30;;;;;;;;;;5062142;28;20226;-74
2022/12/13 07:33:48;;;;;;;40.00;26.60;;;;;;;;;;5078506;28;20167;-74
2022/12/13 07:36:15;;;;;;;35.10;25.20;;;;;;;;;;5065014;28;20656;-74
2022/12/13 07:38:41;;;;;;;35.40;25.80;;;;;;;;;;5084006;28;20305;-73
2022/12/13 07:41:06;;;;;;;34.67;27.10;;;;;;;;;;5070101;28;20457;-73
2022/12/13 07:43:32;;;;;;;38.40;27.57;;;;;;;;;;5071005;28;20179;-74
2022/12/13 07:45:58;;;;;;;36.60;27.53;;;;;;;;;;5075443;28;20290;-74
2022/12/13 07:48:24;;;;;;;39.53;26.93;;;;;;;;;;5068789;28;20460;-74
2022/12/13 07:50:49;;;;;;;40.43;27.97;;;;;;;;;;5067049;28;20434;-74
2022/12/13 07:53:14;;;;;;;39.27;27.50;;;;;;;;;;5066119;28;20176;-75
2022/12/13 07:55:39;;;;;;;35.43;26.80;;;;;;;;;;5074510;28;20179;-74
2022/12/13 07:58:08;;;;;;;37.57;28.20;;;;;;;;;;5064422;28;20344;-74
2022/12/13 08:00:33;;;;;;;38.83;28.13;;;;;;;;;;5079407;28;20665;-75
2022/12/13 08:03:01;;;;;;;38.47;28.43;;;;;;;;;;5083200;28;20520;-75
2022/12/13 08:05:27;;;;;;;42.17;27.40;;;;;;;;;;5065224;28;20183;-74
2022/12/13 08:07:52;;;;;;;42.80;24.77;;;;;;;;;;5067526;28;20464;-74
2022/12/13 08:10:18;;;;;;;45.13;27.23;;;;;;;;;;5065980;28;20183;-74
2022/12/13 08:12:43;;;;;;;37.10;23.50;;;;;;;;;;5084826;28;20190;-74
2022/12/13 08:15:09;;;;;;;41.40;24.50;;;;;;;;;;5067381;28;20183;-74
2022/12/13 08:17:34;;;;;;;41.87;25.00;;;;;;;;;;5072959;28;20683;-73
2022/12/13 08:19:59;;;;;;;39.03;23.17;;;;;;;;;;5068773;28;20205;-74
2022/12/13 08:22:25;;;;;;;42.80;24.70;;;;;;;;;;5069169;28;20206;-74
2022/12/13 08:24:50;;;;;;;36.63;23.70;;;;;;;;;;5074882;28;20189;-74
2022/12/13 08:27:15;;;;;;;36.37;23.90;;;;;;;;;;5068001;28;20199;-75
2022/12/13 08:29:41;;;;;;;36.97;24.23;;;;;;;;;;5067621;28;20209;-74
2022/12/13 08:32:08;;;;;;;38.00;24.87;;;;;;;;;;5065153;28;20688;-75
2022/12/13 08:34:33;;;;;;;40.97;23.70;;;;;;;;;;5079104;28;20221;-74
2022/12/13 08:36:59;;;;;;;44.37;23.73;;;;;;;;;;5067987;28;20447;-74
2022/12/13 08:39:24;;;;;;;39.40;24.77;;;;;;;;;;5065438;28;20280;-74
2022/12/13 08:41:49;;;;;;;36.57;23.83;;;;;;;;;;5067647;28;20677;-74
2022/12/13 08:44:15;;;;;;;43.50;25.60;;;;;;;;;;5066478;28;20175;-74
2022/12/13 08:46:40;;;;;;;42.00;24.07;;;;;;;;;;5067490;28;20242;-74
2022/12/13 08:49:05;;;;;;;38.73;24.70;;;;;;;;;;5067006;28;20203;-75
2022/12/13 09:05:12;;;;;;;36.07;23.37;;;;;;;;;;6166016;22;1438576;-74
2022/12/13 09:10:50;;;;;;;;;;;;;;;;;;;;;
2022/12/13 09:13:25;;;;;;;;;;;;;;;;;;;;;
2022/12/13 09:15:59;;;;;;;33.38;26.30;;;;;;;;;;6158605;23;20439;-75
2022/12/13 09:18:47;;;;;;;31.80;23.00;;;;;;;;;;6160877;23;20463;-74
2022/12/13 09:21:24;;;;;;;;;;;;;;;;;;;;;
2022/12/13 09:23:56;;;;;;;33.65;23.75;;;;;;;;;;6158102;23;20924;-75
2022/12/13 09:26:46;;;;;;;36.17;23.80;;;;;;;;;;6135210;23;20396;-74
2022/12/13 09:30:06;;;;;;;;;;;;;;;;;;;;;
2022/12/13 09:32:10;;;;;;;34.30;25.88;;;;;;;;;;6135546;23;20470;-74
2022/12/13 09:34:50;;;;;;;34.63;24.10;;;;;;;;;;6135684;23;20364;-74
2022/12/13 09:37:15;;;;;;;32.53;25.40;;;;;;;;;;6162990;23;20360;-74
2022/12/13 09:39:46;;;;;;;35.40;24.90;;;;;;;;;;6136014;23;20627;-74
2022/12/13 09:42:48;;;;;;;;;;;;;;;;;;;;;
2022/12/13 09:45:23;;;;;;;32.65;26.75;;;;;;;;;;6159628;23;20471;-74
2022/12/13 09:50:48;;;;;;;;;;;;;;;;;;;;;
2022/12/13 09:53:28;;;;;;;34.17;25.55;;;;;;;;;;5109628;28;20480;-75
2022/12/13 09:56:24;;;;;;;34.30;26.70;;;;;;;;;;5086698;28;20404;-74
2022/12/13 09:58:55;;;;;;;30.77;24.70;;;;;;;;;;5076778;28;21118;-74
2022/12/13 10:05:08;;;;;;;31.63;25.88;;;;;;;;;;5096364;27;20437;-74
2022/12/13 10:08:00;;;;;;;36.33;25.07;;;;;;;;;;5069441;28;20236;-74
2022/12/13 10:10:33;;;;;;;34.83;27.45;;;;;;;;;;5083003;28;20445;-74
2022/12/13 10:12:59;;;;;;;38.05;29.63;;;;;;;;;;5065526;28;20437;-74
2022/12/13 10:15:25;;;;;;;37.83;25.80;;;;;;;;;;5066662;28;20190;-73
2022/12/13 10:17:50;;;;;;;36.47;25.33;;;;;;;;;;5069250;28;20213;-74
2022/12/13 10:20:17;;;;;;;38.80;25.63;;;;;;;;;;5084977;28;20405;-74
2022/12/13 10:22:43;;;;;;;39.33;26.00;;;;;;;;;;5070910;28;20672;-74
2022/12/13 10:25:08;;;;;;;39.47;25.67;;;;;;;;;;5068342;28;20429;-74
2022/12/13 10:27:39;;;;;;;41.50;27.10;;;;;;;;;;5084568;28;20201;-73
2022/12/13 10:30:05;;;;;;;39.27;27.80;;;;;;;;;;5071606;28;20666;-74
2022/12/13 10:32:33;;;;;;;38.53;25.83;;;;;;;;;;5069590;28;20462;-74
2022/12/13 10:34:59;;;;;;;40.50;27.37;;;;;;;;;;5069389;28;20210;-73
2022/12/13 10:37:24;;;;;;;47.90;26.80;;;;;;;;;;5069790;28;20445;-74
2022/12/13 10:39:50;;;;;;;41.63;28.80;;;;;;;;;;5088554;28;20443;-73
2022/12/13 10:42:16;;;;;;;41.13;27.93;;;;;;;;;;5069840;28;20186;-74
2022/12/13 10:44:42;;;;;;;40.50;27.67;;;;;;;;;;5067757;28;20209;-74
2022/12/13 10:47:16;;;;;;;35.27;26.27;;;;;;;;;;5069732;28;20420;-74
2022/12/13 10:49:58;;;;;;;42.97;27.33;;;;;;;;;;5071217;28;20932;-74
2022/12/13 10:52:26;;;;;;;42.10;27.00;;;;;;;;;;5067211;28;20421;-73
2022/12/13 10:54:52;;;;;;;39.40;26.50;;;;;;;;;;5069796;28;20416;-74
2022/12/13 10:57:20;;;;;;;38.07;25.30;;;;;;;;;;5069209;28;20458;-74
2022/12/13 10:59:47;;;;;;;37.17;25.53;;;;;;;;;;5088188;28;20179;-73
2022/12/13 11:02:33;;;;;;;43.23;25.83;;;;;;;;;;5088534;28;20500;-73
2022/12/13 11:04:59;;;;;;;37.87;25.00;;;;;;;;;;5087624;28;20424;-73
2022/12/13 11:07:30;;;;;;;37.10;24.53;;;;;;;;;;5084713;28;20432;-73
2022/12/13 11:10:14;;;;;;;40.30;26.20;;;;;;;;;;5087174;28;20408;-73
2022/12/13 11:12:40;;;;;;;37.73;25.17;;;;;;;;;;5087494;28;20460;-73
2022/12/13 11:15:06;;;;;;;39.93;25.50;;;;;;;;;;5051469;28;20459;-73
2022/12/13 11:17:32;;;;;;;38.93;26.40;;;;;;;;;;5073970;28;20198;-73
2022/12/13 11:20:03;;;;;;;38.10;23.37;;;;;;;;;;5049668;28;20933;-74
2022/12/13 11:22:33;;;;;;;38.40;26.80;;;;;;;;;;5053587;28;20437;-74
2022/12/13 11:25:00;;;;;;;37.47;25.10;;;;;;;;;;5063114;28;20951;-78
2022/12/13 11:27:52;;;;;;;37.43;25.47;;;;;;;;;;5048215;28;20434;-74
2022/12/13 11:30:19;;;;;;;38.20;24.87;;;;;;;;;;5047348;28;20440;-74
2022/12/13 11:32:45;;;;;;;32.40;22.40;;;;;;;;;;5044090;28;20477;-75
2022/12/13 11:35:19;;;;;;;38.30;22.70;;;;;;;;;;5050935;28;20464;-74
2022/12/13 11:37:44;;;;;;;39.80;25.20;;;;;;;;;;5051185;28;20218;-74
2022/12/13 11:40:13;;;;;;;32.87;22.87;;;;;;;;;;5068980;28;20449;-75
2022/12/13 11:42:38;;;;;;;37.17;23.40;;;;;;;;;;5050446;28;20211;-73
2022/12/13 11:45:10;;;;;;;32.87;23.40;;;;;;;;;;5070494;28;20455;-74
2022/12/13 11:47:43;;;;;;;35.30;23.20;;;;;;;;;;5069739;28;20198;-75
2022/12/13 11:50:19;;;;;;;36.27;24.13;;;;;;;;;;5049102;28;20472;-74
2022/12/13 11:52:51;;;;;;;38.90;25.93;;;;;;;;;;5073278;28;21014;-74
2022/12/13 11:55:20;;;;;;;41.27;27.30;;;;;;;;;;5051327;28;20498;-74
2022/12/13 11:57:52;;;;;;;44.07;26.33;;;;;;;;;;5068900;28;21055;-74
2022/12/13 12:00:30;;;;;;;35.80;24.50;;;;;;;;;;5054197;28;20410;-74
2022/12/13 12:02:59;;;;;;;37.40;24.57;;;;;;;;;;5070636;28;20498;-74
2022/12/13 12:05:24;;;;;;;38.20;23.93;;;;;;;;;;5049259;28;20761;-74
2022/12/13 12:07:53;;;;;;;34.60;23.30;;;;;;;;;;5049684;28;20528;-74
2022/12/13 12:10:21;;;;;;;38.00;25.00;;;;;;;;;;5049552;28;20668;-74
2022/12/13 12:12:54;;;;;;;36.37;25.13;;;;;;;;;;5071925;28;20544;-74
2022/12/13 12:15:25;;;;;;;36.77;24.57;;;;;;;;;;5072138;28;20410;-74
2022/12/13 12:17:50;;;;;;;35.23;24.10;;;;;;;;;;5072304;28;20840;-74
2022/12/13 12:20:20;;;;;;;40.03;26.30;;;;;;;;;;5071139;28;20456;-74
2022/12/13 12:23:04;;;;;;;36.60;25.30;;;;;;;;;;5053728;28;20229;-74
2022/12/13 12:25:48;;;;;;;36.50;23.80;;;;;;;;;;5067529;28;20452;-74
2022/12/13 12:28:22;;;;;;;35.13;22.90;;;;;;;;;;5054517;28;20461;-74
2022/12/13 12:30:48;;;;;;;34.37;23.90;;;;;;;;;;5068678;28;20424;-74
2022/12/13 12:33:13;;;;;;;33.80;22.83;;;;;;;;;;5046709;28;20488;-74
2022/12/13 12:35:57;;;;;;;39.90;24.13;;;;;;;;;;5069977;28;20258;-74
2022/12/13 12:38:37;;;;;;;38.20;25.07;;;;;;;;;;5053982;28;20202;-74
2022/12/13 12:41:26;;;;;;;35.47;23.20;;;;;;;;;;5048962;28;20440;-74
2022/12/13 12:44:11;;;;;;;34.60;23.10;;;;;;;;;;5069860;28;20435;-74
2022/12/13 12:46:39;;;;;;;35.83;24.13;;;;;;;;;;5058252;28;20512;-74
2022/12/13 12:49:24;;;;;;;34.47;24.20;;;;;;;;;;5050710;28;20434;-74
2022/12/13 12:51:55;;;;;;;40.00;24.90;;;;;;;;;;5051308;28;20425;-74
2022/12/13 12:54:37;;;;;;;38.57;24.27;;;;;;;;;;5056381;28;20465;-74
2022/12/13 12:57:14;;;;;;;35.70;23.93;;;;;;;;;;5049385;28;20429;-74
2022/12/13 12:59:48;;;;;;;36.20;23.97;;;;;;;;;;5063698;28;20438;-74
2022/12/13 13:02:20;;;;;;;38.43;26.03;;;;;;;;;;5054617;28;20501;-74
2022/12/13 13:04:49;;;;;;;39.83;25.37;;;;;;;;;;5050399;28;20459;-74
2022/12/13 13:07:40;;;;;;;36.67;24.70;;;;;;;;;;5069704;28;20453;-74
2022/12/13 13:10:07;;;;;;;38.70;25.60;;;;;;;;;;5046986;28;20417;-74
2022/12/13 13:12:37;;;;;;;35.67;23.37;;;;;;;;;;5068780;28;20424;-74
2022/12/13 13:15:22;;;;;;;32.50;23.13;;;;;;;;;;5051299;28;20422;-74
2022/12/13 13:17:48;;;;;;;33.33;23.63;;;;;;;;;;5048965;28;20453;-74
2022/12/13 13:20:23;;;;;;;36.87;23.83;;;;;;;;;;5067568;28;20478;-74
2022/12/13 13:22:49;;;;;;;33.83;23.97;;;;;;;;;;5064180;28;20182;-74
2022/12/13 13:25:20;;;;;;;37.00;23.27;;;;;;;;;;5051816;28;20435;-74
2022/12/13 13:27:46;;;;;;;34.63;23.50;;;;;;;;;;5045259;28;20434;-74
2022/12/13 13:30:19;;;;;;;32.77;22.80;;;;;;;;;;5070125;28;20417;-74
2022/12/13 13:32:44;;;;;;;37.80;23.70;;;;;;;;;;5047582;28;20187;-74
2022/12/13 13:35:28;;;;;;;39.77;25.43;;;;;;;;;;5050244;28;20429;-74
2022/12/13 13:37:54;;;;;;;36.73;22.50;;;;;;;;;;5067274;28;20711;-75
2022/12/13 13:40:22;;;;;;;33.93;23.27;;;;;;;;;;5057652;28;20430;-75
2022/12/13 13:43:10;;;;;;;40.30;24.27;;;;;;;;;;5051215;28;20182;-75
2022/12/13 13:45:50;;;;;;;39.40;24.17;;;;;;;;;;5051259;28;20429;-74
2022/12/13 13:48:35;;;;;;;38.07;25.23;;;;;;;;;;5050202;28;20445;-74
2022/12/13 13:51:01;;;;;;;36.70;22.90;;;;;;;;;;5050909;28;20443;-74
2022/12/13 13:53:29;;;;;;;35.03;23.53;;;;;;;;;;5045341;28;20465;-74
2022/12/13 13:56:13;;;;;;;34.53;23.13;;;;;;;;;;5070494;28;20167;-74
2022/12/13 13:58:44;;;;;;;34.73;22.97;;;;;;;;;;5068326;28;20429;-74
2022/12/13 14:01:18;;;;;;;36.23;23.03;;;;;;;;;;5052397;28;20436;-74
2022/12/13 14:04:02;;;;;;;37.77;24.80;;;;;;;;;;5070896;28;20440;-74
2022/12/13 14:06:46;;;;;;;37.10;24.53;;;;;;;;;;5065382;28;20440;-74
2022/12/13 14:09:11;;;;;;;39.40;25.10;;;;;;;;;;5043920;28;20445;-74
2022/12/13 14:11:55;;;;;;;43.53;26.00;;;;;;;;;;5065388;28;20430;-74
2022/12/13 14:14:39;;;;;;;38.73;25.43;;;;;;;;;;5067323;28;20202;-74
2022/12/13 14:17:07;;;;;;;37.80;25.10;;;;;;;;;;5062747;28;20401;-74
2022/12/13 14:19:42;;;;;;;39.47;24.17;;;;;;;;;;5044603;28;20433;-74
2022/12/13 14:22:26;;;;;;;34.17;22.60;;;;;;;;;;5051941;28;20428;-74
2022/12/13 14:24:51;;;;;;;38.73;24.80;;;;;;;;;;5050606;28;20786;-74
2022/12/13 14:27:23;;;;;;;36.77;23.73;;;;;;;;;;5051112;28;20444;-74
2022/12/13 14:29:48;;;;;;;37.07;22.90;;;;;;;;;;5052184;28;20738;-74
2022/12/13 14:32:21;;;;;;;42.73;25.00;;;;;;;;;;5070245;28;20405;-74
2022/12/13 14:34:47;;;;;;;37.27;24.33;;;;;;;;;;5050640;28;20581;-74
2022/12/13 14:37:21;;;;;;;39.30;25.37;;;;;;;;;;5068648;28;20449;-74
2022/12/13 14:39:46;;;;;;;35.10;24.40;;;;;;;;;;5051103;28;20217;-74
2022/12/13 14:42:21;;;;;;;38.00;24.23;;;;;;;;;;5062142;28;20457;-74
2022/12/13 14:44:47;;;;;;;37.53;24.80;;;;;;;;;;5052718;28;20331;-74
2022/12/13 14:47:13;;;;;;;39.67;26.67;;;;;;;;;;5052304;28;21029;-74
2022/12/13 14:49:40;;;;;;;37.67;24.90;;;;;;;;;;5063135;28;20187;-74
2022/12/13 14:52:07;;;;;;;40.30;23.87;;;;;;;;;;5072387;28;20996;-74
2022/12/13 14:54:40;;;;;;;41.57;25.40;;;;;;;;;;5074392;28;20448;-74
2022/12/13 14:57:05;;;;;;;37.97;24.60;;;;;;;;;;5048400;28;20466;-74
2022/12/13 14:59:32;;;;;;;37.63;24.40;;;;;;;;;;5047932;28;20422;-74
2022/12/13 15:02:01;;;;;;;40.40;25.60;;;;;;;;;;5050260;28;20186;-74
2022/12/13 15:04:28;;;;;;;36.50;24.27;;;;;;;;;;5062001;28;20581;-74
2022/12/13 15:07:17;;;;;;;36.10;24.57;;;;;;;;;;5052789;28;20523;-74
2022/12/13 15:09:43;;;;;;;40.07;24.37;;;;;;;;;;5033659;28;20555;-74